createdAt,value
2023-01-11T00:11:58.729Z,0.8896321070234113
2023-01-11T00:18:20.951Z,0.4414715719063545
2023-01-11T00:24:44.127Z,0.9431438127090301
2023-01-11T00:36:56.535Z,0.8561872909698997
2023-01-11T00:43:19.812Z,0.8093645484949833
2023-01-11T00:49:43.267Z,0.5484949832775919
2023-01-11T00:56:05.805Z,0.5351170568561873
2023-01-11T01:02:28.277Z,0.7357859531772575
2023-01-11T01:08:51.388Z,0.4414715719063545
2023-01-11T01:15:13.937Z,0.6287625418060201
2023-01-11T01:21:37.082Z,0.7625418060200669
2023-01-11T01:27:59.740Z,0.35451505016722407
2023-01-11T01:34:21.964Z,0.7290969899665551
2023-01-11T01:40:44.853Z,0.5351170568561873
2023-01-11T01:47:07.753Z,0.6387959866220736
2023-01-11T01:53:30.171Z,0.35451505016722407
2023-01-11T01:59:54.111Z,0.1939799331103679
2023-01-11T02:11:08.876Z,0.705685618729097
2023-01-11T02:17:30.559Z,0.568561872909699
2023-01-11T02:33:35.005Z,0.6153846153846154
2023-01-11T02:39:57.592Z,0.5719063545150501
2023-01-11T02:48:45.905Z,0.5418060200668896
2023-01-11T02:55:07.487Z,0.35451505016722407
2023-01-11T03:01:29.423Z,0.5351170568561873
2023-01-11T03:07:52.627Z,0.6789297658862876
2023-01-11T03:14:15.119Z,0.9163879598662207
2023-01-11T03:31:40.726Z,0.7859531772575251
2023-01-11T03:38:03.998Z,0.36789297658862874
2023-01-11T03:44:27.499Z,0.5585284280936454
2023-01-11T03:50:49.951Z,0.08695652173913043
2023-01-11T03:57:11.537Z,0.6688963210702341
2023-01-11T04:03:34.221Z,0.12040133779264214
2023-01-11T04:09:57.523Z,0.5752508361204013
2023-01-11T04:16:18.887Z,0.9832775919732442
2023-01-11T04:22:41.448Z,0.2809364548494983
2023-01-11T04:29:04.049Z,0.7157190635451505
2023-01-11T04:35:26.612Z,0.35451505016722407
2023-01-11T04:41:49.771Z,0.6086956521739131
2023-01-11T04:48:12.484Z,0.1806020066889632
2023-01-11T04:54:34.699Z,0.35451505016722407
2023-01-11T05:00:57.594Z,0.44816053511705684
2023-01-11T05:07:20.657Z,0.17391304347826086
2023-01-11T05:13:43.767Z,0.08695652173913043
2023-01-11T05:20:06.262Z,0.5351170568561873
2023-01-11T05:26:29.242Z,0.34782608695652173
2023-01-11T05:32:51.220Z,0.23411371237458195
2023-01-11T05:39:43.367Z,0.08695652173913043
2023-01-11T05:50:05.511Z,0.17391304347826086
2023-01-11T05:56:28.431Z,0.24749163879598662
2023-01-11T06:02:51.091Z,0.10033444816053512
2023-01-11T06:16:06.673Z,0.1806020066889632
2023-01-11T06:22:32.516Z,0.0
2023-01-11T06:28:57.131Z,0.08695652173913043
2023-01-11T06:35:19.302Z,0.35451505016722407
2023-01-11T06:41:41.192Z,0.046822742474916385
2023-01-11T06:48:04.130Z,0.26755852842809363
2023-01-11T06:54:26.659Z,0.4414715719063545
2023-01-11T07:00:48.870Z,0.08695652173913043
2023-01-11T07:09:43.802Z,0.4280936454849498
2023-01-11T07:24:19.482Z,0.35451505016722407
2023-01-11T07:30:56.866Z,0.17391304347826086
2023-01-11T07:37:28.845Z,0.4782608695652174
2023-01-11T07:43:53.892Z,0.17391304347826086
2023-01-11T08:01:11.241Z,0.39464882943143814
2023-01-11T08:07:34.386Z,0.6755852842809364
2023-01-11T08:17:13.794Z,0.35451505016722407
2023-01-11T08:23:37.480Z,0.882943143812709
2023-01-11T08:30:03.705Z,1.0501672240802675
2023-01-11T08:36:29.317Z,1.6789297658862876
2023-01-11T08:50:04.013Z,0.5618729096989966
2023-01-11T09:08:30.463Z,0.9832775919732442
2023-01-11T09:21:18.504Z,1.2775919732441472
2023-01-11T09:27:43.932Z,1.6622073578595318
2023-01-11T09:34:09.420Z,2.280936454849498
2023-01-11T09:40:34.073Z,1.3311036789297659
2023-01-11T09:52:23.894Z,1.0033444816053512
2023-01-11T09:58:49.137Z,0.862876254180602
2023-01-11T10:23:43.823Z,1.9096989966555185
2023-01-11T10:32:59.504Z,1.0635451505016722
2023-01-11T10:39:25.000Z,1.1839464882943145
2023-01-11T10:45:50.868Z,1.2040133779264215
2023-01-11T10:52:16.175Z,2.0133779264214047
2023-01-11T11:02:32.839Z,1.2107023411371238
2023-01-11T11:08:58.150Z,2.1538461538461537
2023-01-11T11:20:13.040Z,2.254180602006689
2023-01-11T11:26:38.749Z,2.7859531772575252
2023-01-11T11:35:05.585Z,3.1337792642140467
2023-01-11T11:41:30.498Z,2.0100334448160537
2023-01-11T11:47:56.104Z,2.2441471571906355
2023-01-11T11:54:22.078Z,2.862876254180602
2023-01-11T12:00:46.638Z,2.4147157190635453
2023-01-11T12:11:55.232Z,2.7725752508361206
2023-01-11T12:22:24.634Z,2.0936454849498327
2023-01-11T12:30:33.137Z,3.9732441471571907
2023-01-11T12:36:59.054Z,2.3043478260869565
2023-01-11T12:43:24.250Z,3.6421404682274248
2023-01-11T12:56:12.482Z,2.682274247491639
2023-01-11T13:02:37.797Z,2.270903010033445
2023-01-11T13:09:03.077Z,2.3411371237458196
2023-01-11T13:26:01.028Z,2.963210702341137
2023-01-11T13:33:08.166Z,2.8327759197324416
2023-01-11T13:44:44.761Z,2.82943143812709
2023-01-11T13:53:21.075Z,2.9565217391304346
2023-01-11T14:04:50.182Z,2.531772575250836
2023-01-11T14:11:14.494Z,1.9531772575250836
2023-01-11T14:23:14.966Z,2.1739130434782608
2023-01-11T14:30:16.318Z,3.0334448160535117
2023-01-11T14:36:44.006Z,2.5050167224080266
2023-01-11T14:43:08.960Z,3.1839464882943145
2023-01-11T14:55:20.809Z,3.351170568561873
2023-01-11T15:13:38.435Z,2.551839464882943
2023-01-11T15:20:06.060Z,3.321070234113712
2023-01-11T15:26:28.346Z,3.698996655518395
2023-01-11T15:32:50.460Z,2.789297658862876
2023-01-11T15:39:14.020Z,3.0869565217391304
2023-01-11T15:45:36.475Z,2.1672240802675584
2023-01-11T15:51:59.567Z,2.802675585284281
2023-01-11T15:58:23.939Z,3.3344481605351173
2023-01-11T16:04:46.862Z,4.3879598662207355
2023-01-11T16:11:09.531Z,3.321070234113712
2023-01-11T16:17:48.941Z,3.7558528428093645
2023-01-11T16:24:11.805Z,3.4816053511705687
2023-01-11T16:30:34.107Z,4.39799331103679
2023-01-11T16:36:57.216Z,3.250836120401338
2023-01-11T16:43:19.584Z,3.7558528428093645
2023-01-11T16:49:43.014Z,5.7792642140468224
2023-01-11T16:56:05.766Z,2.8260869565217392
2023-01-11T17:02:27.818Z,3.782608695652174
2023-01-11T17:08:50.057Z,4.976588628762542
2023-01-11T17:15:11.944Z,3.8762541806020065
2023-01-11T17:21:35.065Z,5.51505016722408
2023-01-11T17:27:57.672Z,4.367892976588629
2023-01-11T17:36:23.380Z,4.2040133779264215
2023-01-11T17:42:45.977Z,3.9364548494983276
2023-01-11T17:49:08.417Z,3.749163879598662
2023-01-11T17:55:31.415Z,4.518394648829432
2023-01-11T18:01:53.736Z,4.929765886287625
2023-01-11T18:08:16.463Z,4.605351170568562
2023-01-11T18:14:43.743Z,3.809364548494983
2023-01-11T18:21:06.242Z,3.6956521739130435
2023-01-11T18:29:14.884Z,4.120401337792642
2023-01-11T18:35:55.941Z,4.832775919732441
2023-01-11T18:43:06.273Z,6.508361204013378
2023-01-11T18:50:58.868Z,9.642140468227424
2023-01-11T18:57:28.508Z,5.1237458193979935
2023-01-11T19:04:26.965Z,2.8662207357859533
2023-01-11T19:14:27.668Z,5.792642140468227
2023-01-11T19:21:02.788Z,4.3076923076923075
2023-01-11T19:27:35.433Z,4.010033444816053
2023-01-11T19:34:18.372Z,2.9565217391304346
2023-01-11T19:50:22.964Z,4.230769230769231
2023-01-11T19:56:54.808Z,5.79933110367893
2023-01-11T20:03:26.036Z,5.177257525083612
2023-01-11T20:17:11.218Z,3.842809364548495
2023-01-11T20:24:20.623Z,4.2040133779264215
2023-01-11T20:35:30.376Z,4.20066889632107
2023-01-11T20:43:02.438Z,4.331103678929765
2023-01-11T20:49:45.097Z,3.9732441471571907
2023-01-11T20:56:14.582Z,3.9297658862876252
2023-01-11T21:02:45.613Z,5.173913043478261
2023-01-11T21:12:31.815Z,3.8963210702341136
2023-01-11T21:19:09.265Z,3.568561872909699
2023-01-11T21:25:41.564Z,2.8327759197324416
2023-01-11T21:32:16.292Z,5.354515050167224
2023-01-11T21:38:49.310Z,5.294314381270903
2023-01-11T21:45:20.946Z,3.0668896321070234
2023-01-11T21:51:53.964Z,3.2274247491638794
2023-01-11T21:59:07.906Z,3.3612040133779266
2023-01-11T22:05:37.188Z,2.6153846153846154
2023-01-11T22:12:14.342Z,3.2876254180602005
2023-01-11T22:18:57.639Z,4.337792642140468
2023-01-11T22:25:29.759Z,3.0836120401337794
2023-01-11T22:32:01.467Z,3.2642140468227425
2023-01-11T22:38:32.825Z,2.4581939799331103
2023-01-11T22:54:12.912Z,3.3846153846153846
2023-01-11T23:12:30.271Z,2.3645484949832776
2023-01-11T23:19:22.216Z,3.4581939799331103
2023-01-11T23:26:11.976Z,1.9899665551839465
2023-01-11T23:32:53.756Z,1.8327759197324414
2023-01-11T23:39:32.771Z,1.8494983277591974
2023-01-11T23:46:26.046Z,2.3745819397993313
2023-01-11T23:53:04.866Z,2.6153846153846154
2023-01-11T23:59:59.066Z,3.016722408026756
